Johnsville, New York
Current Conditions -  °F | °C
As of 7:15 AM on Monday 26 Jan 2015 (Local Time) from KNY0 Reporting Station
Overcast Overcast  
Wind Chill: -7°   Ceiling: 9000
Heat Index:   Visibility: 10mi
Dew Point: -6°   Wind: 5mph
Humidity: 67%   Direction: 70°ENE
Pressure: 30.04"   Gusts: NA
Location:  43.035°N, 74.6217°W
Report Text: KNY0 261215Z AUTO 07004KT 10SM OVC090 M16/M21 A3004 RMK AO2 T11651213
Loading
Personal Weather Stations






























Interactive Weather Map New forecast layout! Learn more

10-Day Weather Forecast

Advertisements
Track Severe Weather on mobile